FAMZ weather

Msauli Airport
Msauli, Mpumalanga, South Africa

Public forecast

Using degrees Celsius for public forecast. Weather courtesy of forecast.io.

METAR (pilot weather report)

Closest report is Matsapha Airport, 32.7 nm (60.6 km) SSE. Retrieved 2019/09/21 08:00 UTC (50 seconds ago):

FDMS 210800Z VRB02KT CAVOK 26/17 Q1018 NOSIG

TAF (pilot weather forecast)

Forecast is more than 12 hours old.

Closest forecast is Matsapha Airport, 32.7 nm (60.6 km) SSE. Retrieved 2019/06/03 12:35 UTC (4 months ago):

TAF FDMS 031000Z 0312/0418 12006KT CAVOK